Time;durP1;ratioP1;P1;durP2;ratioP2;P2;SDS_P1;SDS_P2;PMS_P1;PMS_P2;Temp;Humidity;BMP_temperature;BMP_pressure;BME280_temperature;BME280_humidity;BME280_pressure;Samples;Min_cycle;Max_cycle;Signal;HPM_P1;HPM_P2
2023/02/06 00:02:57;;;;;;;13.20;4.97;;;;;;;;;;10505871;28;20047;-78
2023/02/06 00:07:59;;;;;;;15.05;5.93;;;;;;;;;;10462801;28;20410;-78
2023/02/06 00:13:02;;;;;;;12.33;5.50;;;;;;;;;;10464654;28;20135;-79
2023/02/06 00:18:06;;;;;;;11.57;4.70;;;;;;;;;;10462227;28;20836;-79
2023/02/06 00:23:08;;;;;;;11.32;4.95;;;;;;;;;;10472597;28;20517;-79
2023/02/06 00:28:11;;;;;;;12.73;5.13;;;;;;;;;;10459815;28;20082;-78
2023/02/06 00:33:15;;;;;;;13.37;5.77;;;;;;;;;;10467311;28;20438;-78
2023/02/06 00:38:17;;;;;;;8.73;3.97;;;;;;;;;;10454021;28;20448;-78
2023/02/06 00:43:20;;;;;;;10.13;4.37;;;;;;;;;;10458883;28;20489;-79
2023/02/06 00:48:25;;;;;;;9.70;4.17;;;;;;;;;;10460497;28;20396;-78
2023/02/06 00:53:27;;;;;;;10.93;4.97;;;;;;;;;;10457350;28;20104;-80
2023/02/06 00:58:30;;;;;;;6.80;3.67;;;;;;;;;;10451118;28;20033;-80
2023/02/06 01:03:34;;;;;;;10.37;4.10;;;;;;;;;;10461708;28;20071;-79
2023/02/06 01:08:36;;;;;;;;;;;;;;;;;;10463784;28;20497;-79
2023/02/06 01:13:39;;;;;;;9.47;3.93;;;;;;;;;;10474742;28;19931;-79
2023/02/06 01:18:43;;;;;;;10.40;4.23;;;;;;;;;;10461628;28;20534;-79
2023/02/06 01:23:47;;;;;;;9.57;4.90;;;;;;;;;;10464361;28;20056;-78
2023/02/06 01:28:50;;;;;;;9.25;3.85;;;;;;;;;;10465644;28;20046;-77
2023/02/06 01:33:55;;;;;;;10.10;4.90;;;;;;;;;;10466873;28;20443;-77
2023/02/06 01:38:57;;;;;;;7.53;3.77;;;;;;;;;;10465402;28;20037;-77
2023/02/06 01:44:09;;;;;;;10.13;4.73;;;;;;;;;;10461198;28;20075;-78
2023/02/06 01:49:15;;;;;;;10.63;4.77;;;;;;;;;;10458882;28;20048;-78
2023/02/06 01:54:18;;;;;;;11.83;4.73;;;;;;;;;;10458006;28;20051;-78
2023/02/06 01:59:21;;;;;;;10.50;4.63;;;;;;;;;;10459183;28;20049;-78
2023/02/06 02:04:28;;;;;;;8.60;4.07;;;;;;;;;;10468692;28;20037;-78
2023/02/06 02:09:31;;;;;;;10.37;3.93;;;;;;;;;;10459958;28;20040;-76
2023/02/06 02:14:34;;;;;;;8.00;3.10;;;;;;;;;;10458063;28;20121;-79
2023/02/06 02:19:57;;;;;;;8.80;4.43;;;;;;;;;;10466881;28;20036;-77
2023/02/06 02:25:12;;;;;;;8.20;3.90;;;;;;;;;;10453586;28;20128;-78
2023/02/06 02:30:24;;;;;;;11.47;4.93;;;;;;;;;;10469188;28;20052;-77
2023/02/06 02:35:34;;;;;;;12.80;5.57;;;;;;;;;;10499993;28;20048;-78
2023/02/06 02:40:43;;;;;;;13.43;5.00;;;;;;;;;;10514766;28;20033;-77
2023/02/06 02:45:48;;;;;;;12.50;5.00;;;;;;;;;;10487726;28;20045;-78
2023/02/06 02:50:52;;;;;;;11.63;6.00;;;;;;;;;;10498585;28;20040;-79
2023/02/06 02:55:55;;;;;;;9.10;4.30;;;;;;;;;;10498440;28;20574;-79
2023/02/06 03:01:00;;;;;;;13.43;5.17;;;;;;;;;;10468452;28;20135;-79
2023/02/06 03:06:15;;;;;;;12.90;5.47;;;;;;;;;;10463154;28;20056;-79
2023/02/06 03:11:19;;;;;;;12.50;5.30;;;;;;;;;;10471905;28;20106;-79
2023/02/06 03:16:22;;;;;;;;;;;;;;;;;;10473307;28;20509;-79
2023/02/06 03:21:27;;;;;;;12.03;4.93;;;;;;;;;;10458318;28;19924;-79
2023/02/06 03:26:31;;;;;;;14.03;6.07;;;;;;;;;;10465537;28;20040;-79
2023/02/06 03:31:37;;;;;;;17.63;6.00;;;;;;;;;;10455714;28;20118;-78
2023/02/06 03:36:41;;;;;;;14.80;6.53;;;;;;;;;;10467225;28;20189;-78
2023/02/06 03:41:45;;;;;;;11.25;5.72;;;;;;;;;;10468489;28;20120;-77
2023/02/06 03:46:49;;;;;;;13.02;6.20;;;;;;;;;;10462787;28;20045;-76
2023/02/06 03:51:55;;;;;;;14.98;5.75;;;;;;;;;;10465884;28;20168;-77
2023/02/06 03:56:59;;;;;;;12.23;5.77;;;;;;;;;;10458118;28;20044;-77
2023/02/06 04:02:02;;;;;;;;;;;;;;;;;;10462365;28;20060;-77
2023/02/06 04:07:11;;;;;;;10.37;4.73;;;;;;;;;;10471268;28;20378;-77
2023/02/06 04:12:14;;;;;;;14.20;5.77;;;;;;;;;;10470436;28;20040;-76
2023/02/06 04:17:17;;;;;;;12.17;4.53;;;;;;;;;;10461935;28;20080;-77
2023/02/06 04:22:41;;;;;;;15.97;6.17;;;;;;;;;;10467126;28;20037;-77
2023/02/06 04:27:43;;;;;;;;;;;;;;;;;;10467240;28;20484;-77
2023/02/06 04:32:46;;;;;;;13.17;5.37;;;;;;;;;;10455306;28;20293;-78
2023/02/06 04:37:50;;;;;;;11.43;5.53;;;;;;;;;;10459290;28;20044;-78
2023/02/06 04:42:52;;;;;;;8.75;4.40;;;;;;;;;;10469150;28;20099;-76
2023/02/06 04:47:55;;;;;;;9.90;3.93;;;;;;;;;;10455004;28;20517;-78
2023/02/06 04:53:02;;;;;;;8.17;4.00;;;;;;;;;;10452754;28;20482;-78
2023/02/06 04:58:04;;;;;;;9.77;3.58;;;;;;;;;;10457364;28;20060;-76
2023/02/06 05:03:07;;;;;;;10.37;4.53;;;;;;;;;;10462514;28;20087;-77
2023/02/06 05:08:10;;;;;;;11.43;4.53;;;;;;;;;;10459353;28;20501;-76
2023/02/06 05:13:13;;;;;;;14.73;5.85;;;;;;;;;;10460407;28;20132;-77
2023/02/06 05:18:16;;;;;;;11.50;5.07;;;;;;;;;;10457656;28;20044;-78
2023/02/06 05:23:20;;;;;;;12.47;5.40;;;;;;;;;;10463395;28;20055;-78
2023/02/06 05:28:22;;;;;;;10.52;5.07;;;;;;;;;;10437069;28;20045;-79
2023/02/06 05:33:25;;;;;;;8.93;4.13;;;;;;;;;;10460542;28;20068;-79
2023/02/06 05:38:29;;;;;;;8.97;4.07;;;;;;;;;;10462207;28;20036;-81
2023/02/06 05:43:32;;;;;;;6.97;2.47;;;;;;;;;;10463918;28;20028;-80
2023/02/06 05:48:35;;;;;;;4.90;1.70;;;;;;;;;;10459676;28;20053;-80
2023/02/06 05:53:39;;;;;;;3.37;2.30;;;;;;;;;;10476105;28;20033;-80
2023/02/06 05:58:41;;;;;;;;;;;;;;;;;;10466826;28;20072;-81
2023/02/06 06:03:44;;;;;;;9.53;4.03;;;;;;;;;;10469013;28;19940;-77
2023/02/06 06:08:48;;;;;;;13.27;5.80;;;;;;;;;;10464144;28;20045;-79
2023/02/06 06:13:51;;;;;;;13.32;5.32;;;;;;;;;;10453293;28;20190;-78
2023/02/06 06:18:54;;;;;;;13.43;5.40;;;;;;;;;;10455268;28;21768;-80
2023/02/06 06:23:58;;;;;;;19.97;7.77;;;;;;;;;;10452618;28;20071;-79
2023/02/06 06:29:01;;;;;;;16.60;6.72;;;;;;;;;;10470340;28;21304;-77
2023/02/06 06:34:03;;;;;;;15.83;6.13;;;;;;;;;;10458056;28;20105;-78
2023/02/06 06:39:28;;;;;;;17.23;7.30;;;;;;;;;;10463643;28;20049;-78
2023/02/06 06:44:30;;;;;;;13.73;5.63;;;;;;;;;;10457328;28;20459;-77
2023/02/06 06:49:33;;;;;;;19.87;7.13;;;;;;;;;;10447354;28;20036;-78
2023/02/06 06:54:37;;;;;;;23.67;8.23;;;;;;;;;;10464521;28;20382;-78
2023/02/06 06:59:40;;;;;;;19.27;7.22;;;;;;;;;;10466560;28;20044;-78
2023/02/06 07:04:42;;;;;;;15.83;6.80;;;;;;;;;;10463182;28;20048;-78
2023/02/06 07:09:46;;;;;;;11.53;5.63;;;;;;;;;;10460709;28;20045;-78
2023/02/06 07:14:49;;;;;;;15.35;7.18;;;;;;;;;;10461872;28;20029;-78
2023/02/06 07:19:52;;;;;;;11.45;6.30;;;;;;;;;;10455919;28;20049;-78
2023/02/06 07:24:56;;;;;;;15.23;6.40;;;;;;;;;;10451273;28;20061;-78
2023/02/06 07:29:59;;;;;;;15.15;7.30;;;;;;;;;;10454197;28;20190;-78
2023/02/06 07:35:01;;;;;;;14.50;7.30;;;;;;;;;;10458450;28;20049;-78
2023/02/06 07:40:06;;;;;;;16.95;7.45;;;;;;;;;;10457019;28;20106;-79
2023/02/06 07:45:09;;;;;;;13.18;8.02;;;;;;;;;;10462084;28;20410;-79
2023/02/06 07:50:11;;;;;;;16.17;7.93;;;;;;;;;;10456664;28;20874;-79
2023/02/06 07:55:16;;;;;;;19.77;9.65;;;;;;;;;;10459636;28;20032;-79
2023/02/06 08:00:18;;;;;;;14.40;8.07;;;;;;;;;;10457037;28;20145;-79
2023/02/06 08:05:21;;;;;;;16.45;7.97;;;;;;;;;;10468491;28;20178;-79
2023/02/06 08:10:43;;;;;;;12.55;8.15;;;;;;;;;;10482749;28;20185;-80
2023/02/06 08:16:09;;;;;;;11.95;7.57;;;;;;;;;;10495324;28;20044;-81
2023/02/06 08:21:27;;;;;;;12.70;7.78;;;;;;;;;;10501820;28;20036;-80
2023/02/06 08:26:30;;;;;;;26.57;8.40;;;;;;;;;;10503688;28;20032;-79
2023/02/06 08:31:35;;;;;;;15.63;8.15;;;;;;;;;;10510488;28;20037;-78
2023/02/06 08:36:38;;;;;;;10.40;6.82;;;;;;;;;;10493909;28;20627;-78
2023/02/06 08:41:42;;;;;;;13.30;7.70;;;;;;;;;;10499801;28;20674;-78
2023/02/06 08:46:46;;;;;;;11.10;6.72;;;;;;;;;;10475956;28;20158;-79
2023/02/06 08:51:49;;;;;;;9.77;6.88;;;;;;;;;;10466559;28;20118;-79
2023/02/06 08:56:55;;;;;;;14.15;7.80;;;;;;;;;;10464206;28;20370;-79
2023/02/06 09:01:59;;;;;;;9.65;5.78;;;;;;;;;;10458931;28;20386;-79
2023/02/06 09:07:01;;;;;;;11.10;6.57;;;;;;;;;;10455679;28;20095;-78
2023/02/06 09:12:04;;;;;;;8.80;6.22;;;;;;;;;;10459088;28;20056;-78
2023/02/06 09:17:06;;;;;;;;;;;;;;;;;;10459025;28;20086;-79
2023/02/06 09:22:10;;;;;;;9.10;6.13;;;;;;;;;;10455960;28;19924;-79
2023/02/06 09:27:12;;;;;;;7.80;5.75;;;;;;;;;;10456221;28;20495;-79
2023/02/06 09:32:15;;;;;;;8.35;5.18;;;;;;;;;;10456382;28;20049;-80
2023/02/06 09:37:20;;;;;;;7.25;5.13;;;;;;;;;;10462680;28;20551;-79
2023/02/06 09:42:27;;;;;;;9.25;5.22;;;;;;;;;;10459758;28;20041;-79
2023/02/06 09:47:31;;;;;;;6.78;5.00;;;;;;;;;;10459695;28;20123;-79
2023/02/06 09:52:45;;;;;;;8.02;4.15;;;;;;;;;;10460961;28;20112;-80
2023/02/06 09:57:51;;;;;;;6.93;4.40;;;;;;;;;;10458952;28;20470;-79
2023/02/06 10:03:03;;;;;;;6.28;4.35;;;;;;;;;;10465686;28;20116;-80
2023/02/06 10:08:13;;;;;;;9.15;4.70;;;;;;;;;;10452282;28;20028;-80
2023/02/06 10:13:20;;;;;;;6.57;4.88;;;;;;;;;;10455670;28;20571;-80
2023/02/06 10:18:26;;;;;;;9.05;4.63;;;;;;;;;;10452676;28;20035;-80
2023/02/06 10:23:33;;;;;;;7.28;5.55;;;;;;;;;;10456428;28;20107;-79
2023/02/06 10:28:36;;;;;;;8.07;4.85;;;;;;;;;;10452137;28;20040;-79
2023/02/06 10:33:42;;;;;;;7.28;4.60;;;;;;;;;;10448577;28;21735;-79
2023/02/06 10:38:59;;;;;;;8.05;4.72;;;;;;;;;;10473205;28;20155;-79
2023/02/06 10:44:04;;;;;;;6.97;4.22;;;;;;;;;;10454397;28;20068;-79
2023/02/06 10:49:11;;;;;;;6.32;4.18;;;;;;;;;;10438026;28;20032;-78
2023/02/06 10:54:18;;;;;;;7.95;4.82;;;;;;;;;;10447752;28;20045;-78
2023/02/06 10:59:23;;;;;;;8.48;4.20;;;;;;;;;;10451956;28;20494;-79
2023/02/06 11:04:29;;;;;;;10.10;4.30;;;;;;;;;;10451054;28;20445;-79
2023/02/06 11:09:33;;;;;;;7.10;4.18;;;;;;;;;;10451420;28;20041;-78
2023/02/06 11:14:35;;;;;;;;;;;;;;;;;;10466736;28;20041;-79
2023/02/06 11:19:41;;;;;;;9.95;4.10;;;;;;;;;;10464564;28;20368;-80
2023/02/06 11:24:58;;;;;;;8.85;4.45;;;;;;;;;;10468983;28;20575;-78
2023/02/06 11:30:05;;;;;;;11.43;3.92;;;;;;;;;;10448142;28;20040;-77
2023/02/06 11:35:14;;;;;;;9.90;4.07;;;;;;;;;;10463347;28;20071;-77
2023/02/06 11:40:22;;;;;;;8.30;4.22;;;;;;;;;;10467902;28;20044;-78
2023/02/06 11:45:27;;;;;;;9.88;4.38;;;;;;;;;;10464701;28;20048;-78
2023/02/06 11:50:32;;;;;;;10.30;3.90;;;;;;;;;;10456378;28;20041;-78
2023/02/06 11:55:36;;;;;;;9.82;4.70;;;;;;;;;;10468593;28;20040;-78
2023/02/06 12:00:54;;;;;;;12.00;4.60;;;;;;;;;;10454558;28;20383;-78
2023/02/06 12:05:58;;;;;;;9.55;4.28;;;;;;;;;;10463673;28;20187;-78
2023/02/06 12:11:05;;;;;;;8.20;4.18;;;;;;;;;;10468501;28;20133;-78
2023/02/06 12:16:12;;;;;;;11.20;4.50;;;;;;;;;;10461365;28;20099;-78
2023/02/06 12:21:16;;;;;;;7.40;3.97;;;;;;;;;;10462759;28;20090;-78
2023/02/06 12:26:22;;;;;;;6.55;3.95;;;;;;;;;;10468132;28;20041;-77
2023/02/06 12:31:30;;;;;;;10.32;4.22;;;;;;;;;;10473601;28;20040;-77
2023/02/06 12:36:35;;;;;;;8.75;4.50;;;;;;;;;;10467276;28;20075;-78
2023/02/06 12:41:42;;;;;;;10.02;4.70;;;;;;;;;;10465404;28;20074;-78
2023/02/06 12:46:49;;;;;;;9.77;4.63;;;;;;;;;;10453557;28;20127;-79
2023/02/06 12:51:53;;;;;;;8.68;3.95;;;;;;;;;;10461362;28;20069;-78
2023/02/06 12:56:59;;;;;;;10.05;5.22;;;;;;;;;;10475781;28;20049;-78
2023/02/06 13:02:15;;;;;;;8.63;3.80;;;;;;;;;;10500354;28;20212;-78
2023/02/06 13:07:19;;;;;;;10.40;4.80;;;;;;;;;;10503410;28;21817;-78
2023/02/06 13:12:23;;;;;;;8.85;3.72;;;;;;;;;;10494182;28;20052;-78
2023/02/06 13:17:31;;;;;;;8.00;4.17;;;;;;;;;;10488490;28;20040;-78
2023/02/06 13:22:37;;;;;;;11.38;4.93;;;;;;;;;;10481968;28;20036;-78
2023/02/06 13:27:40;;;;;;;11.70;5.20;;;;;;;;;;10456903;28;20585;-78
2023/02/06 13:32:49;;;;;;;8.90;4.65;;;;;;;;;;10442403;28;20041;-78
2023/02/06 13:38:09;;;;;;;11.52;4.68;;;;;;;;;;10459612;28;20044;-77
2023/02/06 13:43:16;;;;;;;10.15;4.68;;;;;;;;;;10460619;28;20151;-78
2023/02/06 13:48:36;;;;;;;9.88;4.70;;;;;;;;;;10439561;28;20055;-79
2023/02/06 13:53:52;;;;;;;9.18;4.50;;;;;;;;;;10465447;28;20049;-79
2023/02/06 13:59:04;;;;;;;12.20;4.72;;;;;;;;;;10453355;28;20044;-78
2023/02/06 14:04:10;;;;;;;10.80;5.57;;;;;;;;;;10449949;28;20293;-79
2023/02/06 14:09:29;;;;;;;13.90;5.82;;;;;;;;;;10452982;28;20067;-78
2023/02/06 14:14:42;;;;;;;13.45;5.03;;;;;;;;;;10456364;28;20439;-77
2023/02/06 14:19:50;;;;;;;11.90;5.10;;;;;;;;;;10450400;28;20472;-78
2023/02/06 14:25:07;;;;;;;10.63;4.47;;;;;;;;;;10456769;28;20057;-78
2023/02/06 14:30:18;;;;;;;10.10;5.20;;;;;;;;;;10462426;28;20048;-79
2023/02/06 14:35:27;;;;;;;10.43;4.43;;;;;;;;;;10457506;28;20402;-79
2023/02/06 14:40:33;;;;;;;10.07;4.53;;;;;;;;;;10433958;28;20045;-79
2023/02/06 14:45:36;;;;;;;10.52;4.53;;;;;;;;;;10456118;28;20044;-78
2023/02/06 14:50:48;;;;;;;10.88;4.25;;;;;;;;;;10461925;28;20049;-79
2023/02/06 14:55:50;;;;;;;12.60;4.22;;;;;;;;;;10465813;28;20052;-79
2023/02/06 15:00:53;;;;;;;9.43;4.18;;;;;;;;;;10464389;28;20509;-79
2023/02/06 15:06:02;;;;;;;12.98;4.50;;;;;;;;;;10479917;28;20291;-78
2023/02/06 15:11:06;;;;;;;7.83;3.10;;;;;;;;;;10474807;28;20459;-79
2023/02/06 15:16:08;;;;;;;;;;;;;;;;;;10469868;28;20055;-78
2023/02/06 15:21:14;;;;;;;9.00;3.63;;;;;;;;;;10474752;28;20447;-78
2023/02/06 15:26:23;;;;;;;9.67;4.10;;;;;;;;;;10468588;28;20181;-77
2023/02/06 15:31:26;;;;;;;9.53;3.87;;;;;;;;;;10466577;28;20250;-77
2023/02/06 15:36:32;;;;;;;13.30;4.47;;;;;;;;;;10461480;28;20467;-78
2023/02/06 15:41:34;;;;;;;13.10;4.50;;;;;;;;;;10460116;28;20048;-77
2023/02/06 15:46:37;;;;;;;10.83;4.37;;;;;;;;;;10456872;28;20051;-78
2023/02/06 15:51:50;;;;;;;14.77;4.70;;;;;;;;;;10454955;28;20048;-77
2023/02/06 15:56:56;;;;;;;10.10;4.07;;;;;;;;;;10454549;28;20220;-78
2023/02/06 16:01:59;;;;;;;10.73;4.53;;;;;;;;;;10456905;28;20148;-80
2023/02/06 16:07:06;;;;;;;10.97;4.90;;;;;;;;;;10460854;28;20075;-77
2023/02/06 16:12:09;;;;;;;7.87;3.63;;;;;;;;;;10450781;28;20049;-78
2023/02/06 16:17:23;;;;;;;7.13;3.60;;;;;;;;;;10447326;28;20041;-78
2023/02/06 16:22:27;;;;;;;9.18;2.63;;;;;;;;;;10455541;28;20048;-77
2023/02/06 16:27:30;;;;;;;;;;;;;;;;;;10466393;28;20028;-78
2023/02/06 16:32:34;;;;;;;8.30;3.40;;;;;;;;;;10455713;28;19921;-78
2023/02/06 16:37:38;;;;;;;7.40;3.28;;;;;;;;;;10474117;28;20115;-78
2023/02/06 16:42:43;;;;;;;8.93;3.85;;;;;;;;;;10453219;28;20392;-78
2023/02/06 16:47:45;;;;;;;10.07;4.20;;;;;;;;;;10449055;28;20091;-78
2023/02/06 16:52:51;;;;;;;11.43;4.23;;;;;;;;;;10455191;28;20040;-78
2023/02/06 16:57:54;;;;;;;11.23;5.00;;;;;;;;;;10454898;28;20113;-79
2023/02/06 17:02:57;;;;;;;11.57;4.30;;;;;;;;;;10452384;28;20064;-78
2023/02/06 17:08:02;;;;;;;9.17;4.33;;;;;;;;;;10455559;28;20037;-78
2023/02/06 17:13:05;;;;;;;10.83;4.00;;;;;;;;;;10457732;28;20044;-79
2023/02/06 17:18:07;;;;;;;11.23;5.80;;;;;;;;;;10458301;28;20032;-78
2023/02/06 17:23:11;;;;;;;8.63;3.70;;;;;;;;;;10454095;28;20051;-79
2023/02/06 17:28:15;;;;;;;9.35;3.35;;;;;;;;;;10458624;28;20048;-78
2023/02/06 17:33:17;;;;;;;8.47;3.37;;;;;;;;;;10453140;28;20378;-78
2023/02/06 17:38:22;;;;;;;12.37;4.07;;;;;;;;;;10460471;28;20305;-79
2023/02/06 17:43:24;;;;;;;7.57;2.60;;;;;;;;;;10478310;28;20406;-79
2023/02/06 17:48:27;;;;;;;8.90;3.43;;;;;;;;;;10472619;28;20102;-80
2023/02/06 17:53:31;;;;;;;7.10;2.93;;;;;;;;;;10459507;28;20036;-79
2023/02/06 17:58:33;;;;;;;7.72;2.97;;;;;;;;;;10454035;28;20124;-79
2023/02/06 18:03:36;;;;;;;5.23;2.57;;;;;;;;;;10458408;28;20537;-79
2023/02/06 18:08:40;;;;;;;7.07;3.17;;;;;;;;;;10453926;28;20044;-79
2023/02/06 18:13:42;;;;;;;;;;;;;;;;;;10457374;28;20107;-80
2023/02/06 18:18:45;;;;;;;7.90;3.87;;;;;;;;;;10451910;28;19947;-80
2023/02/06 18:23:49;;;;;;;7.87;2.77;;;;;;;;;;10458031;28;20059;-78
2023/02/06 18:28:52;;;;;;;11.25;4.43;;;;;;;;;;10459319;28;20386;-78
2023/02/06 18:33:55;;;;;;;6.40;2.03;;;;;;;;;;10467104;28;20524;-79
2023/02/06 18:38:59;;;;;;;12.83;3.60;;;;;;;;;;10457518;28;20037;-77
2023/02/06 18:44:02;;;;;;;11.13;4.28;;;;;;;;;;10443957;28;20432;-79
2023/02/06 18:49:05;;;;;;;6.43;2.67;;;;;;;;;;10471512;28;20056;-80
2023/02/06 18:54:09;;;;;;;7.77;3.07;;;;;;;;;;10462585;28;20041;-79
2023/02/06 18:59:12;;;;;;;11.03;4.50;;;;;;;;;;10466034;28;20036;-78
2023/02/06 19:04:15;;;;;;;12.83;4.30;;;;;;;;;;10462063;28;20098;-79
2023/02/06 19:09:19;;;;;;;5.63;1.93;;;;;;;;;;10458952;28;20462;-79
2023/02/06 19:14:24;;;;;;;12.00;3.93;;;;;;;;;;10453421;28;20040;-79
2023/02/06 19:19:26;;;;;;;;;;;;;;;;;;10462307;28;20053;-79
2023/02/06 19:24:30;;;;;;;7.13;2.80;;;;;;;;;;10448335;28;20334;-81
2023/02/06 19:29:33;;;;;;;4.93;2.03;;;;;;;;;;10475525;28;20037;-78
2023/02/06 19:34:38;;;;;;;7.27;3.40;;;;;;;;;;10454932;28;20048;-78
2023/02/06 19:39:43;;;;;;;6.40;1.90;;;;;;;;;;10463327;28;20041;-77
2023/02/06 19:44:45;;;;;;;7.80;3.03;;;;;;;;;;10455033;28;20053;-77
2023/02/06 19:49:49;;;;;;;9.63;4.07;;;;;;;;;;10464091;28;20383;-78
2023/02/06 19:54:53;;;;;;;10.20;2.90;;;;;;;;;;10458901;28;20493;-77
2023/02/06 19:59:55;;;;;;;9.93;4.40;;;;;;;;;;10466225;28;20518;-78
2023/02/06 20:04:58;;;;;;;8.93;4.00;;;;;;;;;;10449958;28;20474;-77
2023/02/06 20:10:06;;;;;;;6.23;3.10;;;;;;;;;;10456770;28;20124;-77
2023/02/06 20:15:08;;;;;;;9.33;3.57;;;;;;;;;;10457577;28;20055;-75
2023/02/06 20:20:12;;;;;;;10.50;3.77;;;;;;;;;;10446447;28;20040;-77
2023/02/06 20:25:16;;;;;;;10.13;3.65;;;;;;;;;;10450984;28;20041;-76
2023/02/06 20:30:20;;;;;;;15.15;6.32;;;;;;;;;;10461021;28;20037;-76
2023/02/06 20:35:23;;;;;;;11.20;4.15;;;;;;;;;;10444363;28;20041;-77
2023/02/06 20:40:27;;;;;;;13.77;4.40;;;;;;;;;;10455018;28;20049;-77
2023/02/06 20:45:30;;;;;;;8.82;3.72;;;;;;;;;;10457331;28;20421;-76
2023/02/06 20:50:34;;;;;;;16.70;6.37;;;;;;;;;;10462435;28;20037;-76
2023/02/06 20:55:42;;;;;;;14.87;2.67;;;;;;;;;;10476440;28;20146;-78
2023/02/06 21:01:11;;;;;;;10.00;3.70;;;;;;;;;;10453415;28;20052;-76
2023/02/06 21:06:35;;;;;;;12.03;4.37;;;;;;;;;;10455373;28;20053;-77
2023/02/06 21:11:59;;;;;;;8.27;3.90;;;;;;;;;;10453192;28;20048;-78
2023/02/06 21:17:02;;;;;;;2.00;1.20;;;;;;;;;;10458188;28;20468;-78
2023/02/06 21:22:04;;;;;;;11.27;3.40;;;;;;;;;;10453757;28;20166;-75
2023/02/06 21:27:08;;;;;;;12.97;4.53;;;;;;;;;;10448397;28;20067;-77
2023/02/06 21:32:10;;;;;;;3.55;1.60;;;;;;;;;;10454876;28;20036;-78
2023/02/06 21:37:16;;;;;;;9.50;2.33;;;;;;;;;;10463302;28;20041;-78
2023/02/06 21:42:24;;;;;;;11.83;4.37;;;;;;;;;;10468470;28;20391;-77
2023/02/06 21:47:27;;;;;;;4.10;2.07;;;;;;;;;;10465586;28;20119;-78
2023/02/06 21:52:30;;;;;;;4.33;1.60;;;;;;;;;;10462493;28;20144;-76
2023/02/06 21:57:33;;;;;;;12.33;4.37;;;;;;;;;;10467076;28;20044;-76
2023/02/06 22:02:37;;;;;;;13.85;4.32;;;;;;;;;;10458910;28;20045;-80
2023/02/06 22:07:39;;;;;;;19.50;5.77;;;;;;;;;;10465660;28;20040;-77
2023/02/06 22:12:47;;;;;;;13.87;4.70;;;;;;;;;;10455837;28;20045;-78
2023/02/06 22:17:50;;;;;;;4.13;1.67;;;;;;;;;;10463768;28;20041;-78
2023/02/06 22:22:53;;;;;;;16.13;6.37;;;;;;;;;;10464855;28;20037;-79
2023/02/06 22:27:57;;;;;;;8.30;3.33;;;;;;;;;;10469216;28;20055;-79
2023/02/06 22:32:59;;;;;;;6.88;3.47;;;;;;;;;;10446110;28;20041;-77
2023/02/06 22:38:02;;;;;;;7.27;3.17;;;;;;;;;;10473223;28;20048;-78
2023/02/06 22:43:06;;;;;;;7.17;3.57;;;;;;;;;;10450613;28;20045;-77
2023/02/06 22:48:08;;;;;;;18.00;8.10;;;;;;;;;;10447627;28;20155;-77
2023/02/06 22:53:30;;;;;;;4.83;2.93;;;;;;;;;;10464026;28;20466;-77
2023/02/06 22:58:34;;;;;;;9.20;3.97;;;;;;;;;;10453817;28;20072;-77
2023/02/06 23:03:37;;;;;;;5.70;3.22;;;;;;;;;;10451285;28;20036;-78
2023/02/06 23:08:39;;;;;;;3.70;2.17;;;;;;;;;;10456558;28;20041;-78
2023/02/06 23:13:43;;;;;;;5.17;2.20;;;;;;;;;;10471118;28;20064;-79
2023/02/06 23:18:46;;;;;;;8.23;3.72;;;;;;;;;;10460223;28;20498;-79
2023/02/06 23:23:49;;;;;;;9.10;3.97;;;;;;;;;;10461964;28;20056;-79
2023/02/06 23:28:53;;;;;;;9.10;2.90;;;;;;;;;;10460404;28;20402;-77
2023/02/06 23:33:55;;;;;;;6.45;2.80;;;;;;;;;;10462500;28;20217;-76
2023/02/06 23:39:00;;;;;;;8.20;4.43;;;;;;;;;;10464321;28;20477;-77
2023/02/06 23:44:05;;;;;;;6.13;3.50;;;;;;;;;;10457182;28;20474;-77
2023/02/06 23:49:08;;;;;;;11.07;5.83;;;;;;;;;;10459766;28;20136;-78
2023/02/06 23:54:10;;;;;;;12.07;3.90;;;;;;;;;;10461782;28;20045;-78
2023/02/06 23:59:14;;;;;;;11.70;3.97;;;;;;;;;;10471849;28;20495;-78
